Terminal Aerodrome Forecast
Issued by NWS Mt. Holly, NJ

Home | Current Version | Previous Version | Text Only | Print | Product List | Glossary On
Versions: 1 2 3 4 5 6 7 8 9 10 11 12 13 14 15 16
000
FTUS41 KPHI 041748
TAFABE
TAF
KABE 041748Z 0418/0518 07008KT P6SM SCT030 BKN050
      TEMPO 0418/0421 -SHRA BKN035
     FM050400 09005KT P6SM BKN025
     FM051300 07007KT P6SM SCT025 BKN050=

USA.gov is the U.S. government's official web portal to all federal, state and local government web resources and services.